JZA8783 KDCA-CYYZ
Flight info
| Callsign | JZA8783 |
|---|---|
| Flight time | N/A |
| Altitude | 31000 |
| Route | HORTO4 JERES Q221 DLMAR/N0442F320 DCT WOZEE LINNG3 |
| Aircraft | E75L/M-SDE3GILORVW/S |
Departure
| Time | 2026-04-24 00:10 |
|---|---|
| Airport | Ronald Reagan Washington National Airport (KDCA) |
Arrival
| Time | N/A |
|---|---|
| Airport | Toronto Pearson International Airport (CYYZ) |
| Time | Latitude | Longitude | Altitude | Speed | Heading |
|---|---|---|---|---|---|
| 2026-04-23 23:33 | 38.84646 | -77.04203 | 22 ft | 0 kts | 334° |
| 2026-04-24 00:01 | 38.84645 | -77.04202 | 13 ft | 2 kts | 334° |
| 2026-04-24 00:02 | 38.84622 | -77.04188 | 25 ft | 4 kts | 337° |
| 2026-04-24 00:02 | 38.84597 | -77.04179 | 24 ft | 4 kts | 0° |
| 2026-04-24 00:02 | 38.84577 | -77.04191 | 22 ft | 3 kts | 74° |
| 2026-04-24 00:02 | 38.84576 | -77.04201 | 22 ft | 0 kts | 78° |
| 2026-04-24 00:05 | 38.84576 | -77.04200 | 22 ft | 1 kts | 78° |
| 2026-04-24 00:05 | 38.84579 | -77.04182 | 22 ft | 4 kts | 77° |
| 2026-04-24 00:05 | 38.84584 | -77.04155 | 23 ft | 6 kts | 79° |
| 2026-04-24 00:05 | 38.84595 | -77.04095 | 24 ft | 6 kts | 68° |
| 2026-04-24 00:06 | 38.84600 | -77.04082 | 22 ft | 3 kts | 65° |
| 2026-04-24 00:06 | 38.84646 | -77.04030 | 22 ft | 14 kts | 26° |
| 2026-04-24 00:06 | 38.84729 | -77.03980 | 22 ft | 11 kts | 26° |
| 2026-04-24 00:06 | 38.84738 | -77.03905 | 22 ft | 11 kts | 117° |
| 2026-04-24 00:07 | 38.84672 | -77.03865 | 23 ft | 12 kts | 177° |
| 2026-04-24 00:07 | 38.84579 | -77.03858 | 22 ft | 15 kts | 176° |
| 2026-04-24 00:07 | 38.84477 | -77.03849 | 22 ft | 15 kts | 175° |
| 2026-04-24 00:07 | 38.84371 | -77.03839 | 22 ft | 14 kts | 175° |
| 2026-04-24 00:08 | 38.84298 | -77.03831 | 23 ft | 10 kts | 175° |
| 2026-04-24 00:08 | 38.84229 | -77.03798 | 22 ft | 12 kts | 128° |
| 2026-04-24 00:08 | 38.84188 | -77.03705 | 22 ft | 9 kts | 84° |
| 2026-04-24 00:08 | 38.84221 | -77.03682 | 22 ft | 0 kts | 356° |
| 2026-04-24 00:09 | 38.84444 | -77.03704 | 22 ft | 77 kts | 355° |
| 2026-04-24 00:09 | 38.85293 | -77.03787 | 22 ft | 165 kts | 355° |
| 2026-04-24 00:10 | 38.86571 | -77.03913 | 736 ft | 190 kts | 354° |
| 2026-04-24 00:10 | 38.87834 | -77.04303 | 2038 ft | 191 kts | 331° |
| 2026-04-24 00:10 | 38.89016 | -77.05347 | 2945 ft | 219 kts | 321° |
| 2026-04-24 00:10 | 38.90197 | -77.06721 | 4090 ft | 241 kts | 314° |
| 2026-04-24 00:11 | 38.91413 | -77.08231 | 5289 ft | 244 kts | 317° |
| 2026-04-24 00:11 | 38.92641 | -77.09835 | 6208 ft | 261 kts | 309° |
| 2026-04-24 00:11 | 38.93720 | -77.11747 | 7221 ft | 267 kts | 302° |
| 2026-04-24 00:11 | 38.94693 | -77.13772 | 8305 ft | 259 kts | 300° |
| 2026-04-24 00:12 | 38.95531 | -77.15816 | 9085 ft | 262 kts | 298° |
| 2026-04-24 00:12 | 38.96764 | -77.17528 | 9800 ft | 266 kts | 329° |
| 2026-04-24 00:12 | 38.98586 | -77.18034 | 10473 ft | 282 kts | 1° |
| 2026-04-24 00:12 | 39.00505 | -77.17253 | 11270 ft | 296 kts | 17° |
| 2026-04-24 00:13 | 39.02497 | -77.16795 | 12015 ft | 297 kts | 351° |
| 2026-04-24 00:13 | 39.04407 | -77.17713 | 12783 ft | 297 kts | 321° |
| 2026-04-24 00:13 | 39.05667 | -77.19796 | 13578 ft | 301 kts | 292° |
| 2026-04-24 00:13 | 39.05910 | -77.22481 | 14324 ft | 312 kts | 263° |
| 2026-04-24 00:14 | 39.05105 | -77.25122 | 15127 ft | 325 kts | 244° |
| 2026-04-24 00:14 | 39.03917 | -77.27642 | 15981 ft | 332 kts | 245° |
| 2026-04-24 00:14 | 39.03227 | -77.30447 | 16774 ft | 332 kts | 267° |
| 2026-04-24 00:14 | 39.03429 | -77.33417 | 16972 ft | 335 kts | 288° |
| 2026-04-24 00:15 | 39.04540 | -77.36006 | 16988 ft | 331 kts | 311° |
| 2026-04-24 00:15 | 39.06227 | -77.38016 | 17020 ft | 330 kts | 319° |
| 2026-04-24 00:15 | 39.07988 | -77.39917 | 17051 ft | 330 kts | 319° |
| 2026-04-24 00:15 | 39.09746 | -77.41809 | 17056 ft | 329 kts | 321° |
| 2026-04-24 00:16 | 39.11783 | -77.43131 | 17027 ft | 333 kts | 345° |
| 2026-04-24 00:16 | 39.14093 | -77.43087 | 17021 ft | 337 kts | 12° |
| 2026-04-24 00:16 | 39.16242 | -77.41910 | 17069 ft | 342 kts | 23° |
| 2026-04-24 00:16 | 39.18388 | -77.40592 | 17155 ft | 341 kts | 19° |
| 2026-04-24 00:17 | 39.20624 | -77.39619 | 17226 ft | 338 kts | 11° |
| 2026-04-24 00:17 | 39.22933 | -77.39075 | 17266 ft | 335 kts | 1° |
| 2026-04-24 00:17 | 39.25261 | -77.38975 | 17312 ft | 334 kts | 356° |
| 2026-04-24 00:17 | 39.27580 | -77.39100 | 17364 ft | 333 kts | 353° |
| 2026-04-24 00:18 | 39.29887 | -77.39359 | 17405 ft | 333 kts | 351° |
| 2026-04-24 00:18 | 39.32186 | -77.39698 | 17449 ft | 332 kts | 350° |
| 2026-04-24 00:18 | 39.34479 | -77.40069 | 17578 ft | 327 kts | 350° |
| 2026-04-24 00:18 | 39.36743 | -77.40473 | 18203 ft | 335 kts | 349° |
| 2026-04-24 00:19 | 39.39095 | -77.40932 | 18713 ft | 348 kts | 348° |
| 2026-04-24 00:19 | 39.41534 | -77.41404 | 19211 ft | 361 kts | 348° |
| 2026-04-24 00:19 | 39.44058 | -77.41883 | 19716 ft | 371 kts | 349° |
| 2026-04-24 00:19 | 39.46646 | -77.42367 | 20227 ft | 380 kts | 349° |
| 2026-04-24 00:20 | 39.49286 | -77.42851 | 20832 ft | 386 kts | 349° |
| 2026-04-24 00:20 | 39.51969 | -77.43339 | 21462 ft | 392 kts | 349° |
| 2026-04-24 00:20 | 39.54691 | -77.43823 | 22108 ft | 397 kts | 349° |
| 2026-04-24 00:20 | 39.57438 | -77.44298 | 22777 ft | 399 kts | 349° |
| 2026-04-24 00:21 | 39.60197 | -77.44766 | 23458 ft | 401 kts | 348° |
| 2026-04-24 00:21 | 39.62976 | -77.45225 | 24033 ft | 403 kts | 349° |
| 2026-04-24 00:21 | 39.65714 | -77.45918 | 24599 ft | 400 kts | 342° |
| 2026-04-24 00:21 | 39.68357 | -77.46889 | 25186 ft | 401 kts | 340° |
| 2026-04-24 00:22 | 39.71039 | -77.47905 | 25790 ft | 401 kts | 340° |
| 2026-04-24 00:22 | 39.73727 | -77.48914 | 26413 ft | 402 kts | 340° |
| 2026-04-24 00:22 | 39.76415 | -77.49921 | 27045 ft | 402 kts | 340° |
| 2026-04-24 00:22 | 39.79098 | -77.50925 | 27686 ft | 401 kts | 340° |
| 2026-04-24 00:23 | 39.81776 | -77.51925 | 28350 ft | 399 kts | 340° |
| 2026-04-24 00:23 | 39.84438 | -77.52922 | 29027 ft | 397 kts | 340° |
| 2026-04-24 00:23 | 39.87082 | -77.53911 | 29719 ft | 394 kts | 340° |
| 2026-04-24 00:23 | 39.89706 | -77.54895 | 30360 ft | 391 kts | 340° |
| 2026-04-24 00:24 | 39.92312 | -77.55872 | 30924 ft | 389 kts | 340° |
| 2026-04-24 00:24 | 39.94951 | -77.56865 | 31009 ft | 399 kts | 340° |
| 2026-04-24 00:24 | 39.97658 | -77.57887 | 31040 ft | 410 kts | 340° |
| 2026-04-24 00:24 | 40.00437 | -77.58933 | 31056 ft | 421 kts | 340° |
| 2026-04-24 00:25 | 40.06145 | -77.61084 | 31054 ft | 431 kts | 340° |
| 2026-04-24 00:25 | 40.11897 | -77.63254 | 31016 ft | 434 kts | 340° |
| 2026-04-24 00:26 | 40.17708 | -77.65451 | 31008 ft | 436 kts | 340° |
| 2026-04-24 00:26 | 40.23533 | -77.67653 | 31023 ft | 436 kts | 340° |
| 2026-04-24 00:27 | 40.29341 | -77.69859 | 31018 ft | 434 kts | 340° |
| 2026-04-24 00:27 | 40.35142 | -77.72063 | 31020 ft | 434 kts | 340° |
| 2026-04-24 00:28 | 40.40956 | -77.74278 | 31017 ft | 433 kts | 340° |
| 2026-04-24 00:28 | 40.46719 | -77.76478 | 31012 ft | 434 kts | 340° |
| 2026-04-24 00:29 | 40.52509 | -77.78690 | 31010 ft | 433 kts | 340° |
| 2026-04-24 00:29 | 40.58302 | -77.80909 | 31003 ft | 433 kts | 340° |
| 2026-04-24 00:30 | 40.64082 | -77.83126 | 31027 ft | 433 kts | 340° |
| 2026-04-24 00:30 | 40.69876 | -77.85351 | 31031 ft | 433 kts | 340° |
| 2026-04-24 00:31 | 40.75645 | -77.87572 | 31012 ft | 431 kts | 340° |
| 2026-04-24 00:31 | 40.81403 | -77.89793 | 31017 ft | 431 kts | 340° |
| 2026-04-24 00:32 | 40.87166 | -77.92024 | 31035 ft | 431 kts | 340° |
| 2026-04-24 00:32 | 40.92920 | -77.94250 | 30999 ft | 431 kts | 340° |
| 2026-04-24 00:33 | 40.98638 | -77.96459 | 31020 ft | 431 kts | 340° |
| 2026-04-24 00:33 | 41.04405 | -77.98702 | 31021 ft | 432 kts | 340° |
| 2026-04-24 00:34 | 41.10182 | -78.00952 | 31021 ft | 433 kts | 340° |
| 2026-04-24 00:34 | 41.15957 | -78.03206 | 31033 ft | 432 kts | 340° |
| 2026-04-24 00:35 | 41.21706 | -78.05451 | 31036 ft | 431 kts | 340° |
| 2026-04-24 00:35 | 41.27448 | -78.07698 | 31035 ft | 430 kts | 340° |
| 2026-04-24 00:36 | 41.33203 | -78.09953 | 31052 ft | 431 kts | 340° |
| 2026-04-24 00:36 | 41.38961 | -78.12205 | 31031 ft | 431 kts | 340° |
| 2026-04-24 00:37 | 41.44683 | -78.14457 | 31043 ft | 429 kts | 340° |
| 2026-04-24 00:37 | 41.50414 | -78.16696 | 31069 ft | 430 kts | 340° |
| 2026-04-24 00:38 | 41.56113 | -78.18964 | 31065 ft | 430 kts | 340° |
| 2026-04-24 00:38 | 41.61852 | -78.21246 | 31071 ft | 428 kts | 340° |
| 2026-04-24 00:39 | 41.67571 | -78.23516 | 31055 ft | 429 kts | 340° |
| 2026-04-24 00:39 | 41.70445 | -78.24657 | 30830 ft | 431 kts | 340° |
| 2026-04-24 00:39 | 41.73329 | -78.25799 | 30443 ft | 431 kts | 340° |
| 2026-04-24 00:40 | 41.76214 | -78.26943 | 30075 ft | 433 kts | 340° |
| 2026-04-24 00:40 | 41.79101 | -78.28086 | 29658 ft | 433 kts | 339° |
| 2026-04-24 00:40 | 41.81992 | -78.29243 | 29259 ft | 434 kts | 340° |
| 2026-04-24 00:40 | 41.84885 | -78.30392 | 28928 ft | 433 kts | 340° |
| 2026-04-24 00:41 | 41.90635 | -78.32683 | 28998 ft | 434 kts | 340° |
| 2026-04-24 00:41 | 41.96437 | -78.35006 | 28989 ft | 434 kts | 340° |
| 2026-04-24 00:42 | 42.02231 | -78.37328 | 28983 ft | 434 kts | 340° |
| 2026-04-24 00:42 | 42.08014 | -78.39651 | 28993 ft | 433 kts | 340° |